sensor_id;sensor_type;location;lat;lon;timestamp;P1;durP1;ratioP1;P2;durP2;ratioP2
71806;SDS011;59655;42.590;23.364;2023-02-04T00:02:05;3.78;;;2.40;;
71806;SDS011;59655;42.590;23.364;2023-02-04T00:04:30;3.78;;;2.40;;
71806;SDS011;59655;42.590;23.364;2023-02-04T00:06:56;6.35;;;2.72;;
71806;SDS011;59655;42.590;23.364;2023-02-04T00:09:21;3.30;;;2.08;;
71806;SDS011;59655;42.590;23.364;2023-02-04T00:11:46;3.60;;;2.25;;
71806;SDS011;59655;42.590;23.364;2023-02-04T00:14:12;3.55;;;2.40;;
71806;SDS011;59655;42.590;23.364;2023-02-04T00:16:37;3.72;;;2.65;;
71806;SDS011;59655;42.590;23.364;2023-02-04T00:19:03;4.90;;;2.50;;
71806;SDS011;59655;42.590;23.364;2023-02-04T00:21:28;4.70;;;2.60;;
71806;SDS011;59655;42.590;23.364;2023-02-04T00:23:53;5.03;;;3.20;;
71806;SDS011;59655;42.590;23.364;2023-02-04T00:26:19;4.13;;;2.95;;
71806;SDS011;59655;42.590;23.364;2023-02-04T00:28:45;4.45;;;3.25;;
71806;SDS011;59655;42.590;23.364;2023-02-04T00:31:10;5.28;;;3.53;;
71806;SDS011;59655;42.590;23.364;2023-02-04T00:33:36;4.65;;;3.30;;
71806;SDS011;59655;42.590;23.364;2023-02-04T00:36:01;4.47;;;2.85;;
71806;SDS011;59655;42.590;23.364;2023-02-04T00:38:26;6.20;;;3.58;;
71806;SDS011;59655;42.590;23.364;2023-02-04T00:40:52;4.80;;;2.72;;
71806;SDS011;59655;42.590;23.364;2023-02-04T00:43:17;5.03;;;3.50;;
71806;SDS011;59655;42.590;23.364;2023-02-04T00:45:43;5.25;;;3.83;;
71806;SDS011;59655;42.590;23.364;2023-02-04T00:48:09;4.75;;;3.45;;
71806;SDS011;59655;42.590;23.364;2023-02-04T00:50:34;4.50;;;3.33;;
71806;SDS011;59655;42.590;23.364;2023-02-04T00:53:03;4.50;;;3.60;;
71806;SDS011;59655;42.590;23.364;2023-02-04T00:55:29;4.80;;;3.80;;
71806;SDS011;59655;42.590;23.364;2023-02-04T00:57:55;5.28;;;3.38;;
71806;SDS011;59655;42.590;23.364;2023-02-04T01:00:20;5.00;;;3.90;;
71806;SDS011;59655;42.590;23.364;2023-02-04T01:02:46;4.70;;;3.95;;
71806;SDS011;59655;42.590;23.364;2023-02-04T01:05:11;5.20;;;4.40;;
71806;SDS011;59655;42.590;23.364;2023-02-04T01:07:37;5.50;;;3.63;;
71806;SDS011;59655;42.590;23.364;2023-02-04T01:10:02;4.50;;;3.72;;
71806;SDS011;59655;42.590;23.364;2023-02-04T01:12:28;6.47;;;5.00;;
71806;SDS011;59655;42.590;23.364;2023-02-04T01:14:54;5.63;;;4.25;;
71806;SDS011;59655;42.590;23.364;2023-02-04T01:17:19;5.55;;;4.47;;
71806;SDS011;59655;42.590;23.364;2023-02-04T01:19:45;5.63;;;4.65;;
71806;SDS011;59655;42.590;23.364;2023-02-04T01:22:11;4.95;;;4.45;;
71806;SDS011;59655;42.590;23.364;2023-02-04T01:24:37;4.93;;;4.30;;
71806;SDS011;59655;42.590;23.364;2023-02-04T01:27:02;6.47;;;4.63;;
71806;SDS011;59655;42.590;23.364;2023-02-04T01:29:28;5.65;;;4.55;;
71806;SDS011;59655;42.590;23.364;2023-02-04T01:31:53;5.38;;;4.32;;
71806;SDS011;59655;42.590;23.364;2023-02-04T01:34:19;5.80;;;4.70;;
71806;SDS011;59655;42.590;23.364;2023-02-04T01:36:44;5.80;;;4.70;;
71806;SDS011;59655;42.590;23.364;2023-02-04T01:39:09;5.60;;;4.95;;
71806;SDS011;59655;42.590;23.364;2023-02-04T01:41:35;7.60;;;4.38;;
71806;SDS011;59655;42.590;23.364;2023-02-04T01:44:00;5.57;;;4.05;;
71806;SDS011;59655;42.590;23.364;2023-02-04T01:46:26;4.85;;;3.42;;
71806;SDS011;59655;42.590;23.364;2023-02-04T01:48:51;6.45;;;5.00;;
71806;SDS011;59655;42.590;23.364;2023-02-04T01:51:19;5.80;;;4.22;;
71806;SDS011;59655;42.590;23.364;2023-02-04T01:53:51;5.40;;;4.47;;
71806;SDS011;59655;42.590;23.364;2023-02-04T01:56:17;5.75;;;4.40;;
71806;SDS011;59655;42.590;23.364;2023-02-04T01:58:45;5.97;;;4.90;;
71806;SDS011;59655;42.590;23.364;2023-02-04T02:01:12;6.57;;;5.68;;
71806;SDS011;59655;42.590;23.364;2023-02-04T02:03:39;7.22;;;5.30;;
71806;SDS011;59655;42.590;23.364;2023-02-04T02:06:05;7.90;;;4.82;;
71806;SDS011;59655;42.590;23.364;2023-02-04T02:08:33;5.43;;;4.50;;
71806;SDS011;59655;42.590;23.364;2023-02-04T02:11:00;4.85;;;3.65;;
71806;SDS011;59655;42.590;23.364;2023-02-04T02:13:26;5.07;;;3.90;;
71806;SDS011;59655;42.590;23.364;2023-02-04T02:15:51;5.00;;;3.22;;
71806;SDS011;59655;42.590;23.364;2023-02-04T02:18:17;3.97;;;2.97;;
71806;SDS011;59655;42.590;23.364;2023-02-04T02:20:43;4.15;;;2.90;;
71806;SDS011;59655;42.590;23.364;2023-02-04T02:23:18;4.22;;;2.88;;
71806;SDS011;59655;42.590;23.364;2023-02-04T02:25:46;4.03;;;2.88;;
71806;SDS011;59655;42.590;23.364;2023-02-04T02:28:13;4.50;;;3.05;;
71806;SDS011;59655;42.590;23.364;2023-02-04T02:30:40;3.47;;;2.40;;
71806;SDS011;59655;42.590;23.364;2023-02-04T02:35:35;3.60;;;2.25;;
71806;SDS011;59655;42.590;23.364;2023-02-04T02:38:00;3.60;;;2.50;;
71806;SDS011;59655;42.590;23.364;2023-02-04T02:40:26;3.40;;;2.20;;
71806;SDS011;59655;42.590;23.364;2023-02-04T02:42:51;3.92;;;2.50;;
71806;SDS011;59655;42.590;23.364;2023-02-04T02:45:23;4.45;;;2.50;;
71806;SDS011;59655;42.590;23.364;2023-02-04T02:47:50;2.65;;;2.03;;
71806;SDS011;59655;42.590;23.364;2023-02-04T02:50:18;3.28;;;2.55;;
71806;SDS011;59655;42.590;23.364;2023-02-04T02:52:46;3.22;;;2.35;;
71806;SDS011;59655;42.590;23.364;2023-02-04T02:55:13;3.80;;;2.95;;
71806;SDS011;59655;42.590;23.364;2023-02-04T02:57:43;3.72;;;2.47;;
71806;SDS011;59655;42.590;23.364;2023-02-04T03:00:18;3.75;;;1.85;;
71806;SDS011;59655;42.590;23.364;2023-02-04T03:02:48;3.28;;;2.20;;
71806;SDS011;59655;42.590;23.364;2023-02-04T03:05:18;3.35;;;2.08;;
71806;SDS011;59655;42.590;23.364;2023-02-04T03:07:43;2.75;;;2.17;;
71806;SDS011;59655;42.590;23.364;2023-02-04T03:10:09;2.55;;;1.50;;
71806;SDS011;59655;42.590;23.364;2023-02-04T03:12:34;1.83;;;1.00;;
71806;SDS011;59655;42.590;23.364;2023-02-04T03:15:00;1.30;;;0.90;;
71806;SDS011;59655;42.590;23.364;2023-02-04T03:17:25;2.20;;;1.40;;
71806;SDS011;59655;42.590;23.364;2023-02-04T03:19:51;2.58;;;1.35;;
71806;SDS011;59655;42.590;23.364;2023-02-04T03:22:16;3.40;;;2.50;;
71806;SDS011;59655;42.590;23.364;2023-02-04T03:24:42;2.85;;;2.03;;
71806;SDS011;59655;42.590;23.364;2023-02-04T03:27:07;3.92;;;2.60;;
71806;SDS011;59655;42.590;23.364;2023-02-04T03:29:33;3.55;;;2.25;;
71806;SDS011;59655;42.590;23.364;2023-02-04T03:31:58;3.30;;;1.83;;
71806;SDS011;59655;42.590;23.364;2023-02-04T03:34:24;4.97;;;3.28;;
71806;SDS011;59655;42.590;23.364;2023-02-04T03:36:49;2.95;;;2.00;;
71806;SDS011;59655;42.590;23.364;2023-02-04T03:39:14;2.97;;;2.20;;
71806;SDS011;59655;42.590;23.364;2023-02-04T03:41:40;3.15;;;1.77;;
71806;SDS011;59655;42.590;23.364;2023-02-04T03:44:05;2.88;;;2.00;;
71806;SDS011;59655;42.590;23.364;2023-02-04T03:46:31;3.10;;;2.25;;
71806;SDS011;59655;42.590;23.364;2023-02-04T03:48:56;2.78;;;1.70;;
71806;SDS011;59655;42.590;23.364;2023-02-04T03:51:22;3.90;;;2.35;;
71806;SDS011;59655;42.590;23.364;2023-02-04T03:53:47;3.30;;;2.20;;
71806;SDS011;59655;42.590;23.364;2023-02-04T03:56:12;3.15;;;2.35;;
71806;SDS011;59655;42.590;23.364;2023-02-04T03:58:38;3.75;;;2.80;;
71806;SDS011;59655;42.590;23.364;2023-02-04T04:01:03;3.75;;;2.40;;
71806;SDS011;59655;42.590;23.364;2023-02-04T04:03:29;2.70;;;1.83;;
71806;SDS011;59655;42.590;23.364;2023-02-04T04:05:54;3.42;;;2.47;;
71806;SDS011;59655;42.590;23.364;2023-02-04T04:08:20;3.50;;;2.55;;
71806;SDS011;59655;42.590;23.364;2023-02-04T04:10:45;3.90;;;2.55;;
71806;SDS011;59655;42.590;23.364;2023-02-04T04:13:10;5.05;;;2.88;;
71806;SDS011;59655;42.590;23.364;2023-02-04T04:15:36;2.30;;;1.35;;
71806;SDS011;59655;42.590;23.364;2023-02-04T04:18:01;1.48;;;0.68;;
71806;SDS011;59655;42.590;23.364;2023-02-04T04:20:28;1.35;;;0.77;;
71806;SDS011;59655;42.590;23.364;2023-02-04T04:22:54;3.33;;;2.03;;
71806;SDS011;59655;42.590;23.364;2023-02-04T04:25:19;4.70;;;2.85;;
71806;SDS011;59655;42.590;23.364;2023-02-04T04:27:45;4.35;;;2.63;;
71806;SDS011;59655;42.590;23.364;2023-02-04T04:30:10;3.10;;;1.73;;
71806;SDS011;59655;42.590;23.364;2023-02-04T04:32:36;1.90;;;1.00;;
71806;SDS011;59655;42.590;23.364;2023-02-04T04:35:01;1.52;;;0.80;;
71806;SDS011;59655;42.590;23.364;2023-02-04T04:37:27;2.05;;;0.80;;
71806;SDS011;59655;42.590;23.364;2023-02-04T04:39:53;2.10;;;0.95;;
71806;SDS011;59655;42.590;23.364;2023-02-04T04:42:18;0.95;;;0.52;;
71806;SDS011;59655;42.590;23.364;2023-02-04T04:44:44;1.95;;;0.90;;
71806;SDS011;59655;42.590;23.364;2023-02-04T04:47:09;1.70;;;0.77;;
71806;SDS011;59655;42.590;23.364;2023-02-04T04:49:35;2.67;;;1.50;;
71806;SDS011;59655;42.590;23.364;2023-02-04T04:52:00;1.85;;;0.82;;
71806;SDS011;59655;42.590;23.364;2023-02-04T04:54:25;2.63;;;1.58;;
71806;SDS011;59655;42.590;23.364;2023-02-04T04:56:51;2.92;;;1.63;;
71806;SDS011;59655;42.590;23.364;2023-02-04T04:59:16;2.17;;;1.10;;
71806;SDS011;59655;42.590;23.364;2023-02-04T05:01:42;2.10;;;1.30;;
71806;SDS011;59655;42.590;23.364;2023-02-04T05:04:07;2.35;;;1.20;;
71806;SDS011;59655;42.590;23.364;2023-02-04T05:06:32;2.15;;;1.50;;
71806;SDS011;59655;42.590;23.364;2023-02-04T05:08:58;2.20;;;1.30;;
71806;SDS011;59655;42.590;23.364;2023-02-04T05:11:23;2.65;;;1.45;;
71806;SDS011;59655;42.590;23.364;2023-02-04T05:13:49;2.47;;;1.40;;
71806;SDS011;59655;42.590;23.364;2023-02-04T05:16:15;2.40;;;1.20;;
71806;SDS011;59655;42.590;23.364;2023-02-04T05:18:42;2.10;;;0.90;;
71806;SDS011;59655;42.590;23.364;2023-02-04T05:21:08;2.05;;;1.27;;
71806;SDS011;59655;42.590;23.364;2023-02-04T05:23:33;2.22;;;1.00;;
71806;SDS011;59655;42.590;23.364;2023-02-04T05:25:59;2.58;;;1.30;;
71806;SDS011;59655;42.590;23.364;2023-02-04T05:28:24;2.83;;;1.40;;
71806;SDS011;59655;42.590;23.364;2023-02-04T05:30:50;2.28;;;1.60;;
71806;SDS011;59655;42.590;23.364;2023-02-04T05:33:15;2.90;;;1.60;;
71806;SDS011;59655;42.590;23.364;2023-02-04T05:35:41;3.72;;;2.05;;
71806;SDS011;59655;42.590;23.364;2023-02-04T05:38:06;2.72;;;1.80;;
71806;SDS011;59655;42.590;23.364;2023-02-04T05:40:32;2.78;;;1.80;;
71806;SDS011;59655;42.590;23.364;2023-02-04T05:42:57;2.47;;;1.77;;
71806;SDS011;59655;42.590;23.364;2023-02-04T05:45:22;3.13;;;2.05;;
71806;SDS011;59655;42.590;23.364;2023-02-04T05:47:48;3.10;;;2.00;;
71806;SDS011;59655;42.590;23.364;2023-02-04T05:50:13;3.25;;;1.90;;
71806;SDS011;59655;42.590;23.364;2023-02-04T05:52:39;3.55;;;1.90;;
71806;SDS011;59655;42.590;23.364;2023-02-04T05:55:05;4.20;;;2.10;;
71806;SDS011;59655;42.590;23.364;2023-02-04T05:57:31;2.97;;;1.50;;
71806;SDS011;59655;42.590;23.364;2023-02-04T05:59:56;1.25;;;0.50;;
71806;SDS011;59655;42.590;23.364;2023-02-04T06:02:21;1.25;;;0.30;;
71806;SDS011;59655;42.590;23.364;2023-02-04T06:04:47;1.15;;;0.45;;
71806;SDS011;59655;42.590;23.364;2023-02-04T06:07:12;1.05;;;0.50;;
71806;SDS011;59655;42.590;23.364;2023-02-04T06:09:38;0.98;;;0.68;;
71806;SDS011;59655;42.590;23.364;2023-02-04T06:12:03;1.23;;;0.40;;
71806;SDS011;59655;42.590;23.364;2023-02-04T06:14:29;0.95;;;0.47;;
71806;SDS011;59655;42.590;23.364;2023-02-04T06:16:54;0.60;;;0.43;;
71806;SDS011;59655;42.590;23.364;2023-02-04T06:19:20;0.98;;;0.60;;
71806;SDS011;59655;42.590;23.364;2023-02-04T06:21:45;1.65;;;0.80;;
71806;SDS011;59655;42.590;23.364;2023-02-04T06:24:10;0.85;;;0.47;;
71806;SDS011;59655;42.590;23.364;2023-02-04T06:26:36;1.33;;;0.60;;
71806;SDS011;59655;42.590;23.364;2023-02-04T06:29:02;1.13;;;0.40;;
71806;SDS011;59655;42.590;23.364;2023-02-04T06:31:27;0.75;;;0.50;;
71806;SDS011;59655;42.590;23.364;2023-02-04T06:33:53;1.45;;;0.80;;
71806;SDS011;59655;42.590;23.364;2023-02-04T06:36:18;1.20;;;0.40;;
71806;SDS011;59655;42.590;23.364;2023-02-04T06:38:44;0.40;;;0.30;;
71806;SDS011;59655;42.590;23.364;2023-02-04T06:41:09;1.65;;;0.40;;
71806;SDS011;59655;42.590;23.364;2023-02-04T06:43:34;1.33;;;0.55;;
71806;SDS011;59655;42.590;23.364;2023-02-04T06:46:00;0.82;;;0.47;;
71806;SDS011;59655;42.590;23.364;2023-02-04T06:48:25;0.73;;;0.50;;
71806;SDS011;59655;42.590;23.364;2023-02-04T06:50:51;1.92;;;0.60;;
71806;SDS011;59655;42.590;23.364;2023-02-04T06:53:16;0.30;;;0.30;;
71806;SDS011;59655;42.590;23.364;2023-02-04T06:55:42;0.85;;;0.40;;
71806;SDS011;59655;42.590;23.364;2023-02-04T06:58:07;1.50;;;0.50;;
71806;SDS011;59655;42.590;23.364;2023-02-04T07:00:34;1.52;;;0.50;;
71806;SDS011;59655;42.590;23.364;2023-02-04T07:03:00;1.70;;;0.50;;
71806;SDS011;59655;42.590;23.364;2023-02-04T07:05:25;1.10;;;0.73;;
71806;SDS011;59655;42.590;23.364;2023-02-04T07:07:51;1.17;;;0.65;;
71806;SDS011;59655;42.590;23.364;2023-02-04T07:10:16;1.73;;;0.63;;
71806;SDS011;59655;42.590;23.364;2023-02-04T07:12:42;1.50;;;0.88;;
71806;SDS011;59655;42.590;23.364;2023-02-04T07:15:08;3.03;;;2.20;;
71806;SDS011;59655;42.590;23.364;2023-02-04T07:17:34;1.55;;;0.80;;
71806;SDS011;59655;42.590;23.364;2023-02-04T07:19:59;1.15;;;0.70;;
71806;SDS011;59655;42.590;23.364;2023-02-04T07:22:24;0.55;;;0.50;;
71806;SDS011;59655;42.590;23.364;2023-02-04T07:24:50;1.17;;;0.68;;
71806;SDS011;59655;42.590;23.364;2023-02-04T07:27:15;1.52;;;0.50;;
71806;SDS011;59655;42.590;23.364;2023-02-04T07:29:41;1.00;;;0.57;;
71806;SDS011;59655;42.590;23.364;2023-02-04T07:32:06;1.02;;;0.40;;
71806;SDS011;59655;42.590;23.364;2023-02-04T07:34:31;0.75;;;0.43;;
71806;SDS011;59655;42.590;23.364;2023-02-04T07:36:57;0.73;;;0.40;;
71806;SDS011;59655;42.590;23.364;2023-02-04T07:39:23;1.00;;;0.43;;
71806;SDS011;59655;42.590;23.364;2023-02-04T07:41:48;0.77;;;0.32;;
71806;SDS011;59655;42.590;23.364;2023-02-04T07:44:14;0.82;;;0.43;;
71806;SDS011;59655;42.590;23.364;2023-02-04T07:46:39;0.57;;;0.38;;
71806;SDS011;59655;42.590;23.364;2023-02-04T07:49:04;0.75;;;0.50;;
71806;SDS011;59655;42.590;23.364;2023-02-04T07:51:30;1.17;;;0.52;;
71806;SDS011;59655;42.590;23.364;2023-02-04T07:53:55;0.40;;;0.40;;
71806;SDS011;59655;42.590;23.364;2023-02-04T07:56:21;0.77;;;0.30;;
71806;SDS011;59655;42.590;23.364;2023-02-04T07:58:46;1.30;;;0.73;;
71806;SDS011;59655;42.590;23.364;2023-02-04T08:01:12;2.10;;;0.63;;
71806;SDS011;59655;42.590;23.364;2023-02-04T08:03:37;0.80;;;0.40;;
71806;SDS011;59655;42.590;23.364;2023-02-04T08:06:03;1.65;;;0.88;;
71806;SDS011;59655;42.590;23.364;2023-02-04T08:08:28;0.52;;;0.30;;
71806;SDS011;59655;42.590;23.364;2023-02-04T08:10:54;0.63;;;0.40;;
71806;SDS011;59655;42.590;23.364;2023-02-04T08:13:19;0.50;;;0.40;;
71806;SDS011;59655;42.590;23.364;2023-02-04T08:15:44;0.93;;;0.43;;
71806;SDS011;59655;42.590;23.364;2023-02-04T08:18:10;2.25;;;0.98;;
71806;SDS011;59655;42.590;23.364;2023-02-04T08:20:36;1.00;;;0.50;;
71806;SDS011;59655;42.590;23.364;2023-02-04T08:23:01;1.50;;;0.52;;
71806;SDS011;59655;42.590;23.364;2023-02-04T08:25:27;1.33;;;0.52;;
71806;SDS011;59655;42.590;23.364;2023-02-04T08:27:53;1.00;;;0.50;;
71806;SDS011;59655;42.590;23.364;2023-02-04T08:30:19;1.45;;;0.50;;
71806;SDS011;59655;42.590;23.364;2023-02-04T08:32:44;0.90;;;0.60;;
71806;SDS011;59655;42.590;23.364;2023-02-04T08:35:10;0.75;;;0.50;;
71806;SDS011;59655;42.590;23.364;2023-02-04T08:37:35;1.40;;;1.00;;
71806;SDS011;59655;42.590;23.364;2023-02-04T08:40:00;1.13;;;0.50;;
71806;SDS011;59655;42.590;23.364;2023-02-04T08:42:26;0.22;;;0.20;;
71806;SDS011;59655;42.590;23.364;2023-02-04T08:44:51;0.82;;;0.50;;
71806;SDS011;59655;42.590;23.364;2023-02-04T08:47:17;0.32;;;0.32;;
71806;SDS011;59655;42.590;23.364;2023-02-04T08:49:42;0.20;;;0.20;;
71806;SDS011;59655;42.590;23.364;2023-02-04T08:52:08;0.22;;;0.10;;
71806;SDS011;59655;42.590;23.364;2023-02-04T08:54:33;1.40;;;0.63;;
71806;SDS011;59655;42.590;23.364;2023-02-04T08:56:59;2.53;;;1.17;;
71806;SDS011;59655;42.590;23.364;2023-02-04T08:59:26;2.78;;;1.30;;
71806;SDS011;59655;42.590;23.364;2023-02-04T09:01:52;0.30;;;0.20;;
71806;SDS011;59655;42.590;23.364;2023-02-04T09:04:18;0.20;;;0.20;;
71806;SDS011;59655;42.590;23.364;2023-02-04T09:06:50;0.40;;;0.30;;
71806;SDS011;59655;42.590;23.364;2023-02-04T09:09:15;1.83;;;0.43;;
71806;SDS011;59655;42.590;23.364;2023-02-04T09:11:41;0.22;;;0.20;;
71806;SDS011;59655;42.590;23.364;2023-02-04T09:14:07;1.27;;;0.50;;
71806;SDS011;59655;42.590;23.364;2023-02-04T09:16:32;0.90;;;0.40;;
71806;SDS011;59655;42.590;23.364;2023-02-04T09:18:58;2.05;;;0.50;;
71806;SDS011;59655;42.590;23.364;2023-02-04T09:21:24;0.90;;;0.30;;
71806;SDS011;59655;42.590;23.364;2023-02-04T09:23:50;0.30;;;0.30;;
71806;SDS011;59655;42.590;23.364;2023-02-04T09:26:15;0.43;;;0.30;;
71806;SDS011;59655;42.590;23.364;2023-02-04T09:28:41;0.43;;;0.30;;
71806;SDS011;59655;42.590;23.364;2023-02-04T09:31:06;1.27;;;0.70;;
71806;SDS011;59655;42.590;23.364;2023-02-04T09:33:32;1.70;;;1.05;;
71806;SDS011;59655;42.590;23.364;2023-02-04T09:35:58;0.30;;;0.20;;
71806;SDS011;59655;42.590;23.364;2023-02-04T09:38:23;0.30;;;0.20;;
71806;SDS011;59655;42.590;23.364;2023-02-04T09:40:50;2.20;;;1.17;;
71806;SDS011;59655;42.590;23.364;2023-02-04T09:43:26;1.02;;;0.28;;
71806;SDS011;59655;42.590;23.364;2023-02-04T09:45:53;0.30;;;0.25;;
71806;SDS011;59655;42.590;23.364;2023-02-04T09:48:20;0.70;;;0.30;;
71806;SDS011;59655;42.590;23.364;2023-02-04T09:50:46;0.38;;;0.38;;
71806;SDS011;59655;42.590;23.364;2023-02-04T09:53:22;0.68;;;0.50;;
71806;SDS011;59655;42.590;23.364;2023-02-04T09:55:49;0.52;;;0.40;;
71806;SDS011;59655;42.590;23.364;2023-02-04T09:58:17;0.75;;;0.50;;
71806;SDS011;59655;42.590;23.364;2023-02-04T10:00:47;0.20;;;0.20;;
71806;SDS011;59655;42.590;23.364;2023-02-04T10:03:38;0.20;;;0.20;;
71806;SDS011;59655;42.590;23.364;2023-02-04T10:06:10;0.82;;;0.40;;
71806;SDS011;59655;42.590;23.364;2023-02-04T10:08:36;5.88;;;2.88;;
71806;SDS011;59655;42.590;23.364;2023-02-04T10:11:01;2.03;;;1.15;;
71806;SDS011;59655;42.590;23.364;2023-02-04T10:13:35;1.60;;;0.82;;
71806;SDS011;59655;42.590;23.364;2023-02-04T10:16:17;1.15;;;0.52;;
71806;SDS011;59655;42.590;23.364;2023-02-04T10:18:46;0.70;;;0.40;;
71806;SDS011;59655;42.590;23.364;2023-02-04T10:23:49;3.38;;;1.90;;
71806;SDS011;59655;42.590;23.364;2023-02-04T10:26:18;1.65;;;1.00;;
71806;SDS011;59655;42.590;23.364;2023-02-04T10:28:45;0.57;;;0.30;;
71806;SDS011;59655;42.590;23.364;2023-02-04T10:31:31;1.05;;;0.60;;
71806;SDS011;59655;42.590;23.364;2023-02-04T10:34:03;4.55;;;2.30;;
71806;SDS011;59655;42.590;23.364;2023-02-04T10:36:35;1.23;;;0.20;;
71806;SDS011;59655;42.590;23.364;2023-02-04T10:39:05;3.33;;;1.90;;
71806;SDS011;59655;42.590;23.364;2023-02-04T10:41:36;2.60;;;1.70;;
71806;SDS011;59655;42.590;23.364;2023-02-04T10:44:05;2.33;;;1.17;;
71806;SDS011;59655;42.590;23.364;2023-02-04T10:46:37;1.52;;;0.95;;
71806;SDS011;59655;42.590;23.364;2023-02-04T10:49:04;2.47;;;0.80;;
71806;SDS011;59655;42.590;23.364;2023-02-04T10:51:30;0.30;;;0.22;;
71806;SDS011;59655;42.590;23.364;2023-02-04T10:53:56;0.60;;;0.40;;
71806;SDS011;59655;42.590;23.364;2023-02-04T10:56:41;0.30;;;0.20;;
71806;SDS011;59655;42.590;23.364;2023-02-04T10:59:12;0.70;;;0.15;;
71806;SDS011;59655;42.590;23.364;2023-02-04T11:01:46;0.28;;;0.28;;
71806;SDS011;59655;42.590;23.364;2023-02-04T11:04:12;0.40;;;0.40;;
71806;SDS011;59655;42.590;23.364;2023-02-04T11:06:38;0.60;;;0.40;;
71806;SDS011;59655;42.590;23.364;2023-02-04T11:09:03;0.45;;;0.30;;
71806;SDS011;59655;42.590;23.364;2023-02-04T11:11:29;0.43;;;0.20;;
71806;SDS011;59655;42.590;23.364;2023-02-04T11:24:36;0.25;;;0.22;;
71806;SDS011;59655;42.590;23.364;2023-02-04T11:26:41;0.88;;;0.50;;
71806;SDS011;59655;42.590;23.364;2023-02-04T11:29:26;2.22;;;1.13;;
71806;SDS011;59655;42.590;23.364;2023-02-04T11:32:54;3.47;;;1.65;;
71806;SDS011;59655;42.590;23.364;2023-02-04T11:34:51;0.38;;;0.30;;
71806;SDS011;59655;42.590;23.364;2023-02-04T11:39:52;2.67;;;1.45;;
71806;SDS011;59655;42.590;23.364;2023-02-04T11:44:51;0.43;;;0.30;;
71806;SDS011;59655;42.590;23.364;2023-02-04T11:47:19;0.20;;;0.20;;
71806;SDS011;59655;42.590;23.364;2023-02-04T11:49:46;0.30;;;0.20;;
71806;SDS011;59655;42.590;23.364;2023-02-04T11:52:18;0.20;;;0.20;;
71806;SDS011;59655;42.590;23.364;2023-02-04T11:54:51;0.40;;;0.20;;
71806;SDS011;59655;42.590;23.364;2023-02-04T11:57:17;0.25;;;0.20;;
71806;SDS011;59655;42.590;23.364;2023-02-04T11:59:44;0.20;;;0.20;;
71806;SDS011;59655;42.590;23.364;2023-02-04T12:02:22;0.10;;;0.10;;
71806;SDS011;59655;42.590;23.364;2023-02-04T12:04:56;0.30;;;0.22;;
71806;SDS011;59655;42.590;23.364;2023-02-04T12:07:32;0.32;;;0.30;;
71806;SDS011;59655;42.590;23.364;2023-02-04T12:09:58;0.30;;;0.22;;
71806;SDS011;59655;42.590;23.364;2023-02-04T12:12:47;0.20;;;0.20;;
71806;SDS011;59655;42.590;23.364;2023-02-04T12:15:15;0.63;;;0.25;;
71806;SDS011;59655;42.590;23.364;2023-02-04T12:17:58;0.30;;;0.30;;
71806;SDS011;59655;42.590;23.364;2023-02-04T12:20:26;0.22;;;0.20;;
71806;SDS011;59655;42.590;23.364;2023-02-04T12:22:51;0.30;;;0.30;;
71806;SDS011;59655;42.590;23.364;2023-02-04T12:25:17;0.30;;;0.30;;
71806;SDS011;59655;42.590;23.364;2023-02-04T12:27:44;0.70;;;0.30;;
71806;SDS011;59655;42.590;23.364;2023-02-04T12:30:09;0.40;;;0.30;;
71806;SDS011;59655;42.590;23.364;2023-02-04T12:32:36;0.10;;;0.10;;
71806;SDS011;59655;42.590;23.364;2023-02-04T12:35:01;1.08;;;0.40;;
71806;SDS011;59655;42.590;23.364;2023-02-04T12:37:27;0.30;;;0.25;;
71806;SDS011;59655;42.590;23.364;2023-02-04T12:39:52;0.20;;;0.20;;
71806;SDS011;59655;42.590;23.364;2023-02-04T12:42:17;0.60;;;0.40;;
71806;SDS011;59655;42.590;23.364;2023-02-04T12:44:44;0.20;;;0.20;;
71806;SDS011;59655;42.590;23.364;2023-02-04T12:47:11;0.13;;;0.10;;
71806;SDS011;59655;42.590;23.364;2023-02-04T12:49:36;1.38;;;0.70;;
71806;SDS011;59655;42.590;23.364;2023-02-04T12:52:02;0.22;;;0.22;;
71806;SDS011;59655;42.590;23.364;2023-02-04T12:54:28;0.40;;;0.30;;
71806;SDS011;59655;42.590;23.364;2023-02-04T12:56:54;0.30;;;0.20;;
71806;SDS011;59655;42.590;23.364;2023-02-04T12:59:22;1.45;;;0.52;;
71806;SDS011;59655;42.590;23.364;2023-02-04T13:01:48;1.00;;;0.50;;
71806;SDS011;59655;42.590;23.364;2023-02-04T13:04:14;0.30;;;0.30;;
71806;SDS011;59655;42.590;23.364;2023-02-04T13:06:39;0.90;;;0.60;;
71806;SDS011;59655;42.590;23.364;2023-02-04T13:09:05;1.15;;;0.50;;
71806;SDS011;59655;42.590;23.364;2023-02-04T13:11:31;0.20;;;0.20;;
71806;SDS011;59655;42.590;23.364;2023-02-04T13:13:58;0.43;;;0.20;;
71806;SDS011;59655;42.590;23.364;2023-02-04T13:16:23;0.80;;;0.45;;
71806;SDS011;59655;42.590;23.364;2023-02-04T13:18:49;0.90;;;0.40;;
71806;SDS011;59655;42.590;23.364;2023-02-04T13:21:15;0.70;;;0.30;;
71806;SDS011;59655;42.590;23.364;2023-02-04T13:23:40;0.85;;;0.50;;
71806;SDS011;59655;42.590;23.364;2023-02-04T13:26:06;0.38;;;0.30;;
71806;SDS011;59655;42.590;23.364;2023-02-04T13:28:33;0.30;;;0.30;;
71806;SDS011;59655;42.590;23.364;2023-02-04T13:30:58;0.20;;;0.20;;
71806;SDS011;59655;42.590;23.364;2023-02-04T13:33:24;0.30;;;0.10;;
71806;SDS011;59655;42.590;23.364;2023-02-04T13:35:49;0.80;;;0.50;;
71806;SDS011;59655;42.590;23.364;2023-02-04T13:38:15;0.32;;;0.20;;
71806;SDS011;59655;42.590;23.364;2023-02-04T13:40:40;0.52;;;0.30;;
71806;SDS011;59655;42.590;23.364;2023-02-04T13:43:06;0.15;;;0.15;;
71806;SDS011;59655;42.590;23.364;2023-02-04T13:45:31;0.22;;;0.20;;
71806;SDS011;59655;42.590;23.364;2023-02-04T13:47:57;0.20;;;0.20;;
71806;SDS011;59655;42.590;23.364;2023-02-04T13:50:22;0.22;;;0.20;;
71806;SDS011;59655;42.590;23.364;2023-02-04T13:52:47;0.43;;;0.40;;
71806;SDS011;59655;42.590;23.364;2023-02-04T13:55:13;0.45;;;0.38;;
71806;SDS011;59655;42.590;23.364;2023-02-04T13:57:38;2.33;;;1.80;;
71806;SDS011;59655;42.590;23.364;2023-02-04T14:00:04;0.75;;;0.45;;
71806;SDS011;59655;42.590;23.364;2023-02-04T14:02:31;1.48;;;0.95;;
71806;SDS011;59655;42.590;23.364;2023-02-04T14:04:57;0.70;;;0.50;;
71806;SDS011;59655;42.590;23.364;2023-02-04T14:07:22;0.55;;;0.38;;
71806;SDS011;59655;42.590;23.364;2023-02-04T14:09:48;0.73;;;0.20;;
71806;SDS011;59655;42.590;23.364;2023-02-04T14:12:14;0.35;;;0.20;;
71806;SDS011;59655;42.590;23.364;2023-02-04T14:14:39;0.90;;;0.52;;
71806;SDS011;59655;42.590;23.364;2023-02-04T14:17:05;0.80;;;0.43;;
71806;SDS011;59655;42.590;23.364;2023-02-04T14:19:30;0.35;;;0.30;;
71806;SDS011;59655;42.590;23.364;2023-02-04T14:21:56;0.75;;;0.38;;
71806;SDS011;59655;42.590;23.364;2023-02-04T14:24:22;0.55;;;0.30;;
71806;SDS011;59655;42.590;23.364;2023-02-04T14:26:48;0.38;;;0.28;;
71806;SDS011;59655;42.590;23.364;2023-02-04T14:29:14;0.32;;;0.30;;
71806;SDS011;59655;42.590;23.364;2023-02-04T14:31:40;0.63;;;0.40;;
71806;SDS011;59655;42.590;23.364;2023-02-04T14:34:05;0.45;;;0.40;;
71806;SDS011;59655;42.590;23.364;2023-02-04T14:36:31;0.80;;;0.50;;
71806;SDS011;59655;42.590;23.364;2023-02-04T14:38:56;1.13;;;0.65;;
71806;SDS011;59655;42.590;23.364;2023-02-04T14:41:22;1.45;;;0.63;;
71806;SDS011;59655;42.590;23.364;2023-02-04T14:43:47;1.23;;;0.75;;
71806;SDS011;59655;42.590;23.364;2023-02-04T14:46:12;2.53;;;0.63;;
71806;SDS011;59655;42.590;23.364;2023-02-04T14:48:38;1.30;;;0.52;;
71806;SDS011;59655;42.590;23.364;2023-02-04T14:51:03;1.13;;;0.50;;